sensor_id;sensor_type;location;lat;lon;timestamp;pressure;altitude;pressure_sealevel;temperature;humidity
44309;BME280;30022;55.846;37.340;2023-09-19T00:02:17;68589.84;;;-143.51;nan
44309;BME280;30022;55.846;37.340;2023-09-19T00:04:43;63747.44;;;-143.51;nan
44309;BME280;30022;55.846;37.340;2023-09-19T00:07:08;63291.28;;;-143.51;nan
44309;BME280;30022;55.846;37.340;2023-09-19T00:09:34;67555.38;;;-143.51;nan
44309;BME280;30022;55.846;37.340;2023-09-19T00:12:04;65491.22;;;-143.51;nan
44309;BME280;30022;55.846;37.340;2023-09-19T00:14:30;63707.75;;;-143.51;nan
44309;BME280;30022;55.846;37.340;2023-09-19T00:16:58;64574.59;;;-143.51;nan
44309;BME280;30022;55.846;37.340;2023-09-19T00:19:26;67025.34;;;-143.51;nan
44309;BME280;30022;55.846;37.340;2023-09-19T00:21:52;66338.56;;;-143.51;nan
44309;BME280;30022;55.846;37.340;2023-09-19T00:24:18;65596.38;;;-143.51;nan
44309;BME280;30022;55.846;37.340;2023-09-19T00:26:44;63995.34;;;-143.51;nan
44309;BME280;30022;55.846;37.340;2023-09-19T00:29:12;64023.13;;;-143.51;nan
44309;BME280;30022;55.846;37.340;2023-09-19T00:31:44;66253.25;;;-143.51;nan
44309;BME280;30022;55.846;37.340;2023-09-19T00:34:10;65497.16;;;-143.51;nan
44309;BME280;30022;55.846;37.340;2023-09-19T00:36:36;68560.06;;;-143.51;nan
44309;BME280;30022;55.846;37.340;2023-09-19T00:39:04;67344.94;;;-143.51;nan
44309;BME280;30022;55.846;37.340;2023-09-19T00:41:31;65818.63;;;-143.51;nan
44309;BME280;30022;55.846;37.340;2023-09-19T00:43:57;65800.75;;;-143.51;nan
44309;BME280;30022;55.846;37.340;2023-09-19T00:46:22;64029.06;;;-143.51;nan
44309;BME280;30022;55.846;37.340;2023-09-19T00:48:48;62710.25;;;-143.51;nan
44309;BME280;30022;55.846;37.340;2023-09-19T00:51:14;62686.47;;;-143.51;nan
44309;BME280;30022;55.846;37.340;2023-09-19T00:53:44;62492.13;;;-143.51;nan
44309;BME280;30022;55.846;37.340;2023-09-19T00:56:11;61401.78;;;-143.51;nan
44309;BME280;30022;55.846;37.340;2023-09-19T00:58:37;62599.22;;;-143.51;nan
44309;BME280;30022;55.846;37.340;2023-09-19T01:01:04;63533.22;;;-143.51;nan
44309;BME280;30022;55.846;37.340;2023-09-19T01:03:34;63025.53;;;-143.51;nan
44309;BME280;30022;55.846;37.340;2023-09-19T01:06:01;61679.28;;;-143.51;nan
44309;BME280;30022;55.846;37.340;2023-09-19T01:08:27;62571.44;;;-143.51;nan
44309;BME280;30022;55.846;37.340;2023-09-19T01:11:02;62476.28;;;-143.51;nan
44309;BME280;30022;55.846;37.340;2023-09-19T01:16:37;66850.66;;;-143.51;nan
44309;BME280;30022;55.846;37.340;2023-09-19T01:29:39;62997.78;;;-143.51;nan
44309;BME280;30022;55.846;37.340;2023-09-19T01:32:08;62508.00;;;-143.51;nan
44309;BME280;30022;55.846;37.340;2023-09-19T01:34:44;61540.53;;;-143.51;nan
44309;BME280;30022;55.846;37.340;2023-09-19T01:37:14;61568.28;;;-143.51;nan
44309;BME280;30022;55.846;37.340;2023-09-19T01:39:44;61974.66;;;-143.51;nan
44309;BME280;30022;55.846;37.340;2023-09-19T01:44:54;63023.56;;;-143.51;nan
44309;BME280;30022;55.846;37.340;2023-09-19T01:50:01;60222.53;;;-143.51;nan
44309;BME280;30022;55.846;37.340;2023-09-19T01:52:30;60032.28;;;-143.51;nan
44309;BME280;30022;55.846;37.340;2023-09-19T01:55:01;63071.16;;;-143.51;nan
44309;BME280;30022;55.846;37.340;2023-09-19T01:58:34;61485.03;;;-143.51;nan
44309;BME280;30022;55.846;37.340;2023-09-19T02:00:29;60202.72;;;-143.51;nan
44309;BME280;30022;55.846;37.340;2023-09-19T02:02:58;61764.53;;;-143.51;nan
44309;BME280;30022;55.846;37.340;2023-09-19T02:05:25;60503.91;;;-143.51;nan
44309;BME280;30022;55.846;37.340;2023-09-19T02:07:52;62440.59;;;-143.51;nan
44309;BME280;30022;55.846;37.340;2023-09-19T02:10:19;64352.41;;;-143.51;nan
44309;BME280;30022;55.846;37.340;2023-09-19T02:12:44;63259.53;;;-143.51;nan
44309;BME280;30022;55.846;37.340;2023-09-19T02:15:13;64880.09;;;-143.51;nan
44309;BME280;30022;55.846;37.340;2023-09-19T02:17:41;63864.44;;;-143.51;nan
44309;BME280;30022;55.846;37.340;2023-09-19T02:20:07;61667.41;;;-143.51;nan
44309;BME280;30022;55.846;37.340;2023-09-19T02:22:35;63011.66;;;-143.51;nan
44309;BME280;30022;55.846;37.340;2023-09-19T02:25:21;66336.59;;;-143.51;nan
44309;BME280;30022;55.846;37.340;2023-09-19T02:27:46;63741.47;;;-143.51;nan
44309;BME280;30022;55.846;37.340;2023-09-19T02:30:12;63828.75;;;-143.51;nan
44309;BME280;30022;55.846;37.340;2023-09-19T02:32:41;65112.22;;;-143.51;nan
44309;BME280;30022;55.846;37.340;2023-09-19T02:35:07;62165.00;;;-143.51;nan
44309;BME280;30022;55.846;37.340;2023-09-19T02:37:36;62730.06;;;-143.51;nan
44309;BME280;30022;55.846;37.340;2023-09-19T02:40:01;63848.59;;;-143.51;nan
44309;BME280;30022;55.846;37.340;2023-09-19T02:42:29;62331.53;;;-143.51;nan
44309;BME280;30022;55.846;37.340;2023-09-19T02:44:55;62438.59;;;-143.51;nan
44309;BME280;30022;55.846;37.340;2023-09-19T02:47:22;62289.91;;;-143.51;nan
44309;BME280;30022;55.846;37.340;2023-09-19T02:49:48;65576.53;;;-143.51;nan
44309;BME280;30022;55.846;37.340;2023-09-19T02:52:13;64560.69;;;-143.51;nan
44309;BME280;30022;55.846;37.340;2023-09-19T02:54:39;61465.19;;;-143.51;nan
44309;BME280;30022;55.846;37.340;2023-09-19T02:57:05;60943.91;;;-143.51;nan
44309;BME280;30022;55.846;37.340;2023-09-19T02:59:32;67642.72;;;-143.51;nan
44309;BME280;30022;55.846;37.340;2023-09-19T03:01:57;61494.94;;;-143.51;nan
44309;BME280;30022;55.846;37.340;2023-09-19T03:04:24;61770.47;;;-143.51;nan
44309;BME280;30022;55.846;37.340;2023-09-19T03:06:52;62706.28;;;-143.51;nan
44309;BME280;30022;55.846;37.340;2023-09-19T03:09:18;59731.09;;;-143.51;nan
44309;BME280;30022;55.846;37.340;2023-09-19T03:11:44;60040.22;;;-143.51;nan
44309;BME280;30022;55.846;37.340;2023-09-19T03:14:11;60735.78;;;-143.51;nan
44309;BME280;30022;55.846;37.340;2023-09-19T03:16:37;61996.47;;;-143.51;nan
44309;BME280;30022;55.846;37.340;2023-09-19T03:19:03;64328.59;;;-143.51;nan
44309;BME280;30022;55.846;37.340;2023-09-19T03:21:31;70166.88;;;-143.51;nan
44309;BME280;30022;55.846;37.340;2023-09-19T03:23:56;63850.56;;;-143.51;nan
44309;BME280;30022;55.846;37.340;2023-09-19T03:26:22;62028.19;;;-143.51;nan
44309;BME280;30022;55.846;37.340;2023-09-19T03:28:47;64203.63;;;-143.51;nan
44309;BME280;30022;55.846;37.340;2023-09-19T03:31:13;67301.25;;;-143.51;nan
44309;BME280;30022;55.846;37.340;2023-09-19T03:33:39;70540.38;;;-143.51;nan
44309;BME280;30022;55.846;37.340;2023-09-19T03:36:04;63999.31;;;-143.51;nan
44309;BME280;30022;55.846;37.340;2023-09-19T03:38:30;63495.53;;;-143.51;nan
44309;BME280;30022;55.846;37.340;2023-09-19T03:40:57;63767.25;;;-143.51;nan
44309;BME280;30022;55.846;37.340;2023-09-19T03:43:22;64558.72;;;-143.51;nan
44309;BME280;30022;55.846;37.340;2023-09-19T03:45:48;62020.28;;;-143.51;nan
44309;BME280;30022;55.846;37.340;2023-09-19T03:48:14;62341.44;;;-143.51;nan
44309;BME280;30022;55.846;37.340;2023-09-19T03:50:40;62726.13;;;-143.51;nan
44309;BME280;30022;55.846;37.340;2023-09-19T03:53:06;64812.66;;;-143.51;nan
44309;BME280;30022;55.846;37.340;2023-09-19T03:55:34;63545.13;;;-143.51;nan
44309;BME280;30022;55.846;37.340;2023-09-19T03:58:05;63939.81;;;-143.51;nan
44309;BME280;30022;55.846;37.340;2023-09-19T04:00:30;63955.69;;;-143.51;nan
44309;BME280;30022;55.846;37.340;2023-09-19T04:02:57;65286.84;;;-143.51;nan
44309;BME280;30022;55.846;37.340;2023-09-19T04:05:23;65858.31;;;-143.51;nan
44309;BME280;30022;55.846;37.340;2023-09-19T04:07:49;65630.13;;;-143.51;nan
44309;BME280;30022;55.846;37.340;2023-09-19T04:10:15;65967.47;;;-143.51;nan
44309;BME280;30022;55.846;37.340;2023-09-19T04:12:41;67305.25;;;-143.51;nan
44309;BME280;30022;55.846;37.340;2023-09-19T04:15:15;66483.47;;;-143.51;nan
44309;BME280;30022;55.846;37.340;2023-09-19T04:17:42;64362.31;;;-143.51;nan
44309;BME280;30022;55.846;37.340;2023-09-19T04:20:07;61552.41;;;-143.51;nan
44309;BME280;30022;55.846;37.340;2023-09-19T04:22:33;68571.97;;;-143.51;nan
44309;BME280;30022;55.846;37.340;2023-09-19T04:24:59;71651.13;;;-143.51;nan
44309;BME280;30022;55.846;37.340;2023-09-19T04:27:25;71631.25;;;-143.51;nan
44309;BME280;30022;55.846;37.340;2023-09-19T04:29:51;67555.38;;;-143.51;nan
44309;BME280;30022;55.846;37.340;2023-09-19T04:32:18;72255.34;;;-143.51;nan
44309;BME280;30022;55.846;37.340;2023-09-19T04:34:43;68653.38;;;-143.51;nan
44309;BME280;30022;55.846;37.340;2023-09-19T04:37:09;63741.47;;;-143.51;nan
44309;BME280;30022;55.846;37.340;2023-09-19T04:39:36;63289.28;;;-143.51;nan
44309;BME280;30022;55.846;37.340;2023-09-19T04:42:01;62500.06;;;-143.51;nan
44309;BME280;30022;55.846;37.340;2023-09-19T04:44:28;61946.91;;;-143.51;nan
44309;BME280;30022;55.846;37.340;2023-09-19T04:46:54;61956.81;;;-143.51;nan
44309;BME280;30022;55.846;37.340;2023-09-19T04:49:19;61425.56;;;-143.51;nan
44309;BME280;30022;55.846;37.340;2023-09-19T04:51:45;62476.28;;;-143.51;nan
44309;BME280;30022;55.846;37.340;2023-09-19T04:54:12;62422.75;;;-143.51;nan
44309;BME280;30022;55.846;37.340;2023-09-19T04:56:38;61970.72;;;-143.51;nan
44309;BME280;30022;55.846;37.340;2023-09-19T04:59:05;61691.19;;;-143.51;nan
44309;BME280;30022;55.846;37.340;2023-09-19T05:01:31;62997.78;;;-143.51;nan
44309;BME280;30022;55.846;37.340;2023-09-19T05:03:57;71929.38;;;-143.51;nan
44309;BME280;30022;55.846;37.340;2023-09-19T05:06:23;62920.44;;;-143.51;nan
44309;BME280;30022;55.846;37.340;2023-09-19T05:08:48;62028.19;;;-143.51;nan
44309;BME280;30022;55.846;37.340;2023-09-19T05:11:18;62743.97;;;-143.51;nan
44309;BME280;30022;55.846;37.340;2023-09-19T05:13:44;63269.47;;;-143.51;nan
44309;BME280;30022;55.846;37.340;2023-09-19T05:16:10;63277.41;;;-143.51;nan
44309;BME280;30022;55.846;37.340;2023-09-19T05:18:35;62287.91;;;-143.51;nan
44309;BME280;30022;55.846;37.340;2023-09-19T05:21:04;63015.63;;;-143.51;nan
44309;BME280;30022;55.846;37.340;2023-09-19T05:23:29;64310.75;;;-143.51;nan
44309;BME280;30022;55.846;37.340;2023-09-19T05:25:56;71370.94;;;-143.51;nan
44309;BME280;30022;55.846;37.340;2023-09-19T05:28:23;64707.50;;;-143.51;nan
44309;BME280;30022;55.846;37.340;2023-09-19T05:30:49;63295.25;;;-143.51;nan
44309;BME280;30022;55.846;37.340;2023-09-19T05:33:15;64826.53;;;-143.51;nan
44309;BME280;30022;55.846;37.340;2023-09-19T05:35:40;65572.56;;;-143.51;nan
44309;BME280;30022;55.846;37.340;2023-09-19T05:38:07;64530.94;;;-143.51;nan
44309;BME280;30022;55.846;37.340;2023-09-19T05:40:34;69565.00;;;-143.51;nan
44309;BME280;30022;55.846;37.340;2023-09-19T05:43:00;68385.31;;;-143.51;nan
44309;BME280;30022;55.846;37.340;2023-09-19T05:45:26;62456.44;;;-143.51;nan
44309;BME280;30022;55.846;37.340;2023-09-19T05:47:52;61326.44;;;-143.51;nan
44309;BME280;30022;55.846;37.340;2023-09-19T05:50:21;60569.31;;;-143.51;nan
44309;BME280;30022;55.846;37.340;2023-09-19T05:52:53;61334.38;;;-143.51;nan
44309;BME280;30022;55.846;37.340;2023-09-19T05:55:19;63112.78;;;-143.51;nan
44309;BME280;30022;55.846;37.340;2023-09-19T05:57:49;61001.38;;;-143.51;nan
44309;BME280;30022;55.846;37.340;2023-09-19T06:00:15;63063.22;;;-143.51;nan
44309;BME280;30022;55.846;37.340;2023-09-19T06:02:43;69352.47;;;-143.51;nan
44309;BME280;30022;55.846;37.340;2023-09-19T06:05:10;61502.88;;;-143.51;nan
44309;BME280;30022;55.846;37.340;2023-09-19T06:07:36;60426.63;;;-143.51;nan
44309;BME280;30022;55.846;37.340;2023-09-19T06:10:05;60545.53;;;-143.51;nan
44309;BME280;30022;55.846;37.340;2023-09-19T06:12:32;60464.28;;;-143.51;nan
44309;BME280;30022;55.846;37.340;2023-09-19T06:14:59;58292.88;;;-143.51;nan
44309;BME280;30022;55.846;37.340;2023-09-19T06:17:24;57882.91;;;-143.51;nan
44309;BME280;30022;55.846;37.340;2023-09-19T06:19:52;57435.34;;;-143.51;nan
44309;BME280;30022;55.846;37.340;2023-09-19T06:22:17;56922.50;;;-143.51;nan
44309;BME280;30022;55.846;37.340;2023-09-19T06:24:44;57013.56;;;-143.51;nan
44309;BME280;30022;55.846;37.340;2023-09-19T06:27:12;56415.66;;;-143.51;nan
44309;BME280;30022;55.846;37.340;2023-09-19T06:29:38;56374.06;;;-143.51;nan
44309;BME280;30022;55.846;37.340;2023-09-19T06:32:07;56922.50;;;-143.51;nan
44309;BME280;30022;55.846;37.340;2023-09-19T06:34:34;57407.63;;;-143.51;nan
44309;BME280;30022;55.846;37.340;2023-09-19T06:36:59;59766.78;;;-143.51;nan
44309;BME280;30022;55.846;37.340;2023-09-19T06:39:25;56944.28;;;-143.51;nan
44309;BME280;30022;55.846;37.340;2023-09-19T06:41:51;56191.94;;;-143.51;nan
44309;BME280;30022;55.846;37.340;2023-09-19T06:44:19;56653.22;;;-143.51;nan
44309;BME280;30022;55.846;37.340;2023-09-19T06:46:47;57526.44;;;-143.51;nan
44309;BME280;30022;55.846;37.340;2023-09-19T06:49:15;57435.34;;;-143.51;nan
44309;BME280;30022;55.846;37.340;2023-09-19T06:51:41;56502.75;;;-143.51;nan
44309;BME280;30022;55.846;37.340;2023-09-19T06:54:07;56368.13;;;-143.51;nan
44309;BME280;30022;55.846;37.340;2023-09-19T06:56:32;56154.34;;;-143.51;nan
44309;BME280;30022;55.846;37.340;2023-09-19T06:58:58;56215.69;;;-143.51;nan
44309;BME280;30022;55.846;37.340;2023-09-19T07:01:24;54893.53;;;-143.51;nan
44309;BME280;30022;55.846;37.340;2023-09-19T07:03:50;61786.34;;;-143.51;nan
44309;BME280;30022;55.846;37.340;2023-09-19T07:06:16;57732.38;;;-143.51;nan
44309;BME280;30022;55.846;37.340;2023-09-19T07:08:41;57930.44;;;-143.51;nan
44309;BME280;30022;55.846;37.340;2023-09-19T07:11:08;60961.75;;;-143.51;nan
44309;BME280;30022;55.846;37.340;2023-09-19T07:13:34;58130.47;;;-143.51;nan
44309;BME280;30022;55.846;37.340;2023-09-19T07:16:00;54386.94;;;-143.51;nan
44309;BME280;30022;55.846;37.340;2023-09-19T07:18:26;54206.88;;;-143.51;nan
44309;BME280;30022;55.846;37.340;2023-09-19T07:20:56;55372.47;;;-143.51;nan
44309;BME280;30022;55.846;37.340;2023-09-19T07:23:26;54628.34;;;-143.51;nan
44309;BME280;30022;55.846;37.340;2023-09-19T07:25:51;54430.47;;;-143.51;nan
44309;BME280;30022;55.846;37.340;2023-09-19T07:28:17;55635.72;;;-143.51;nan
44309;BME280;30022;55.846;37.340;2023-09-19T07:30:43;57659.13;;;-143.51;nan
44309;BME280;30022;55.846;37.340;2023-09-19T07:33:09;57629.41;;;-143.51;nan
44309;BME280;30022;55.846;37.340;2023-09-19T07:35:37;56981.88;;;-143.51;nan
44309;BME280;30022;55.846;37.340;2023-09-19T07:38:06;58865.34;;;-143.51;nan
44309;BME280;30022;55.846;37.340;2023-09-19T07:40:32;55162.66;;;-143.51;nan
44309;BME280;30022;55.846;37.340;2023-09-19T07:42:57;58465.19;;;-143.51;nan
44309;BME280;30022;55.846;37.340;2023-09-19T07:45:30;54454.22;;;-143.51;nan
44309;BME280;30022;55.846;37.340;2023-09-19T07:47:55;54113.88;;;-143.51;nan
44309;BME280;30022;55.846;37.340;2023-09-19T07:50:21;57940.34;;;-143.51;nan
44309;BME280;30022;55.846;37.340;2023-09-19T07:52:47;55245.78;;;-143.51;nan
44309;BME280;30022;55.846;37.340;2023-09-19T07:55:16;55160.69;;;-143.51;nan
44309;BME280;30022;55.846;37.340;2023-09-19T07:57:45;52088.34;;;-143.51;nan
44309;BME280;30022;55.846;37.340;2023-09-19T08:00:11;53631.13;;;-143.51;nan
44309;BME280;30022;55.846;37.340;2023-09-19T08:02:37;53599.47;;;-143.51;nan
44309;BME280;30022;55.846;37.340;2023-09-19T08:05:07;53987.25;;;-143.51;nan
44309;BME280;30022;55.846;37.340;2023-09-19T08:07:40;54382.97;;;-143.51;nan
44309;BME280;30022;55.846;37.340;2023-09-19T08:10:06;54612.53;;;-143.51;nan
44309;BME280;30022;55.846;37.340;2023-09-19T08:12:45;56671.03;;;-143.51;nan
44309;BME280;30022;55.846;37.340;2023-09-19T08:17:39;57146.25;;;-143.51;nan
44309;BME280;30022;55.846;37.340;2023-09-19T08:20:04;59431.94;;;-143.51;nan
44309;BME280;30022;55.846;37.340;2023-09-19T08:22:30;57680.91;;;-143.51;nan
44309;BME280;30022;55.846;37.340;2023-09-19T08:24:57;59138.72;;;-143.51;nan
44309;BME280;30022;55.846;37.340;2023-09-19T08:27:23;56364.16;;;-143.51;nan
44309;BME280;30022;55.846;37.340;2023-09-19T08:29:52;58667.25;;;-143.51;nan
44309;BME280;30022;55.846;37.340;2023-09-19T08:32:18;56686.88;;;-143.51;nan
44309;BME280;30022;55.846;37.340;2023-09-19T08:34:49;57928.44;;;-143.51;nan
44309;BME280;30022;55.846;37.340;2023-09-19T08:37:14;58391.91;;;-143.51;nan
44309;BME280;30022;55.846;37.340;2023-09-19T08:39:42;57968.06;;;-143.51;nan
44309;BME280;30022;55.846;37.340;2023-09-19T08:42:14;56892.78;;;-143.51;nan
44309;BME280;30022;55.846;37.340;2023-09-19T08:44:41;59731.09;;;-143.51;nan
44309;BME280;30022;55.846;37.340;2023-09-19T08:47:14;58936.66;;;-143.51;nan
44309;BME280;30022;55.846;37.340;2023-09-19T08:52:28;55902.94;;;-143.51;nan
44309;BME280;30022;55.846;37.340;2023-09-19T08:54:59;55669.34;;;-143.51;nan
44309;BME280;30022;55.846;37.340;2023-09-19T08:57:29;58693.00;;;-143.51;nan
44309;BME280;30022;55.846;37.340;2023-09-19T08:59:58;56500.78;;;-143.51;nan
44309;BME280;30022;55.846;37.340;2023-09-19T09:02:25;57027.44;;;-143.51;nan
44309;BME280;30022;55.846;37.340;2023-09-19T09:04:52;57639.31;;;-143.51;nan
44309;BME280;30022;55.846;37.340;2023-09-19T09:07:19;57106.63;;;-143.51;nan
44309;BME280;30022;55.846;37.340;2023-09-19T09:09:46;53882.41;;;-143.51;nan
44309;BME280;30022;55.846;37.340;2023-09-19T09:12:12;53114.81;;;-143.51;nan
44309;BME280;30022;55.846;37.340;2023-09-19T09:14:39;55166.63;;;-143.51;nan
44309;BME280;30022;55.846;37.340;2023-09-19T09:17:05;55655.50;;;-143.51;nan
44309;BME280;30022;55.846;37.340;2023-09-19T09:19:30;54145.53;;;-143.51;nan
44309;BME280;30022;55.846;37.340;2023-09-19T09:22:05;53071.31;;;-143.51;nan
44309;BME280;30022;55.846;37.340;2023-09-19T09:24:31;52610.44;;;-143.51;nan
44309;BME280;30022;55.846;37.340;2023-09-19T09:27:03;52412.66;;;-143.51;nan
44309;BME280;30022;55.846;37.340;2023-09-19T09:34:53;51079.91;;;-143.51;nan
44309;BME280;30022;55.846;37.340;2023-09-19T09:37:19;51072.00;;;-143.51;nan
44309;BME280;30022;55.846;37.340;2023-09-19T09:42:35;49901.75;;;-143.51;nan
44309;BME280;30022;55.846;37.340;2023-09-19T09:47:54;47301.53;;;-143.51;nan
44309;BME280;30022;55.846;37.340;2023-09-19T09:51:07;47025.03;;;-143.51;nan
44309;BME280;30022;55.846;37.340;2023-09-19T09:53:23;47392.41;;;-143.51;nan
44309;BME280;30022;55.846;37.340;2023-09-19T09:55:57;47868.47;;;-143.51;nan
44309;BME280;30022;55.846;37.340;2023-09-19T09:58:22;49083.56;;;-143.51;nan
44309;BME280;30022;55.846;37.340;2023-09-19T10:00:57;49277.22;;;-143.51;nan
44309;BME280;30022;55.846;37.340;2023-09-19T10:03:36;49379.97;;;-143.51;nan
44309;BME280;30022;55.846;37.340;2023-09-19T10:06:12;50332.63;;;-143.51;nan
44309;BME280;30022;55.846;37.340;2023-09-19T10:11:46;49905.69;;;-143.51;nan
44309;BME280;30022;55.846;37.340;2023-09-19T10:14:16;50158.69;;;-143.51;nan
44309;BME280;30022;55.846;37.340;2023-09-19T10:16:46;49941.28;;;-143.51;nan
44309;BME280;30022;55.846;37.340;2023-09-19T10:19:15;52185.22;;;-143.51;nan
44309;BME280;30022;55.846;37.340;2023-09-19T10:21:41;52207.00;;;-143.51;nan
44309;BME280;30022;55.846;37.340;2023-09-19T10:24:08;51835.22;;;-143.51;nan
44309;BME280;30022;55.846;37.340;2023-09-19T10:26:34;50364.25;;;-143.51;nan
44309;BME280;30022;55.846;37.340;2023-09-19T10:29:01;50055.91;;;-143.51;nan
44309;BME280;30022;55.846;37.340;2023-09-19T10:31:29;49555.88;;;-143.51;nan
44309;BME280;30022;55.846;37.340;2023-09-19T10:33:55;49666.53;;;-143.51;nan
44309;BME280;30022;55.846;37.340;2023-09-19T10:36:23;49929.41;;;-143.51;nan
44309;BME280;30022;55.846;37.340;2023-09-19T10:38:50;49893.84;;;-143.51;nan
44309;BME280;30022;55.846;37.340;2023-09-19T10:41:20;49336.50;;;-143.51;nan
44309;BME280;30022;55.846;37.340;2023-09-19T10:43:48;49921.50;;;-143.51;nan
44309;BME280;30022;55.846;37.340;2023-09-19T10:46:13;50079.63;;;-143.51;nan
44309;BME280;30022;55.846;37.340;2023-09-19T10:48:39;50042.06;;;-143.51;nan
44309;BME280;30022;55.846;37.340;2023-09-19T10:56:16;49642.81;;;-143.51;nan
44309;BME280;30022;55.846;37.340;2023-09-19T10:58:43;50427.53;;;-143.51;nan
44309;BME280;30022;55.846;37.340;2023-09-19T11:01:10;50069.75;;;-143.51;nan
44309;BME280;30022;55.846;37.340;2023-09-19T11:03:43;49860.22;;;-143.51;nan
44309;BME280;30022;55.846;37.340;2023-09-19T11:20:26;49939.28;;;-143.51;nan
44309;BME280;30022;55.846;37.340;2023-09-19T11:22:34;49834.53;;;-143.51;nan
44309;BME280;30022;55.846;37.340;2023-09-19T11:30:43;53140.53;;;-143.51;nan
44309;BME280;30022;55.846;37.340;2023-09-19T11:33:28;54094.09;;;-143.51;nan
44309;BME280;30022;55.846;37.340;2023-09-19T11:36:08;54834.16;;;-143.51;nan
44309;BME280;30022;55.846;37.340;2023-09-19T11:43:52;46632.03;;;-143.51;nan
44309;BME280;30022;55.846;37.340;2023-09-19T11:46:20;46081.06;;;-143.51;nan
44309;BME280;30022;55.846;37.340;2023-09-19T11:48:49;46243.00;;;-143.51;nan
44309;BME280;30022;55.846;37.340;2023-09-19T11:51:16;46227.19;;;-143.51;nan
44309;BME280;30022;55.846;37.340;2023-09-19T11:53:47;46043.56;;;-143.51;nan
44309;BME280;30022;55.846;37.340;2023-09-19T11:56:16;46069.22;;;-143.51;nan
44309;BME280;30022;55.846;37.340;2023-09-19T11:58:43;46055.41;;;-143.51;nan
44309;BME280;30022;55.846;37.340;2023-09-19T12:01:08;46037.63;;;-143.51;nan
44309;BME280;30022;55.846;37.340;2023-09-19T12:03:45;46037.63;;;-143.51;nan
44309;BME280;30022;55.846;37.340;2023-09-19T12:06:16;46037.63;;;-143.51;nan
44309;BME280;30022;55.846;37.340;2023-09-19T12:08:42;46035.66;;;-143.51;nan
44309;BME280;30022;55.846;37.340;2023-09-19T12:11:15;46037.63;;;-143.51;nan
44309;BME280;30022;55.846;37.340;2023-09-19T12:13:42;46037.63;;;-143.51;nan
44309;BME280;30022;55.846;37.340;2023-09-19T12:16:13;46037.63;;;-143.51;nan
44309;BME280;30022;55.846;37.340;2023-09-19T12:18:44;46039.59;;;-143.51;nan
44309;BME280;30022;55.846;37.340;2023-09-19T12:21:29;46037.63;;;-143.51;nan
44309;BME280;30022;55.846;37.340;2023-09-19T12:24:15;46033.69;;;-143.51;nan
44309;BME280;30022;55.846;37.340;2023-09-19T12:26:45;46037.63;;;-143.51;nan
44309;BME280;30022;55.846;37.340;2023-09-19T12:29:17;46035.66;;;-143.51;nan
44309;BME280;30022;55.846;37.340;2023-09-19T12:31:52;46033.69;;;-143.51;nan
44309;BME280;30022;55.846;37.340;2023-09-19T12:34:31;46033.69;;;-143.51;nan
44309;BME280;30022;55.846;37.340;2023-09-19T12:37:06;46033.69;;;-143.51;nan
44309;BME280;30022;55.846;37.340;2023-09-19T12:39:37;46037.63;;;-143.51;nan
44309;BME280;30022;55.846;37.340;2023-09-19T12:42:03;46037.63;;;-143.51;nan
44309;BME280;30022;55.846;37.340;2023-09-19T12:44:31;46033.69;;;-143.51;nan
44309;BME280;30022;55.846;37.340;2023-09-19T12:46:58;46033.69;;;-143.51;nan
44309;BME280;30022;55.846;37.340;2023-09-19T12:49:25;46035.66;;;-143.51;nan
44309;BME280;30022;55.846;37.340;2023-09-19T12:51:51;46033.69;;;-143.51;nan
44309;BME280;30022;55.846;37.340;2023-09-19T12:54:20;46031.72;;;-143.51;nan
44309;BME280;30022;55.846;37.340;2023-09-19T12:56:47;46031.72;;;-143.51;nan
44309;BME280;30022;55.846;37.340;2023-09-19T12:59:15;46035.66;;;-143.51;nan
44309;BME280;30022;55.846;37.340;2023-09-19T13:01:42;46033.69;;;-143.51;nan
44309;BME280;30022;55.846;37.340;2023-09-19T13:04:12;46033.69;;;-143.51;nan
44309;BME280;30022;55.846;37.340;2023-09-19T13:06:38;46033.69;;;-143.51;nan
44309;BME280;30022;55.846;37.340;2023-09-19T13:09:09;46033.69;;;-143.51;nan
44309;BME280;30022;55.846;37.340;2023-09-19T13:11:36;46037.63;;;-143.51;nan
44309;BME280;30022;55.846;37.340;2023-09-19T13:14:15;46031.72;;;-143.51;nan
44309;BME280;30022;55.846;37.340;2023-09-19T13:19:37;46033.69;;;-143.51;nan
44309;BME280;30022;55.846;37.340;2023-09-19T13:22:05;46033.69;;;-143.51;nan
44309;BME280;30022;55.846;37.340;2023-09-19T13:24:50;46037.63;;;-143.51;nan
44309;BME280;30022;55.846;37.340;2023-09-19T13:27:16;46037.63;;;-143.51;nan
44309;BME280;30022;55.846;37.340;2023-09-19T13:29:42;46035.66;;;-143.51;nan
44309;BME280;30022;55.846;37.340;2023-09-19T13:32:07;46031.72;;;-143.51;nan
44309;BME280;30022;55.846;37.340;2023-09-19T13:34:36;46033.69;;;-143.51;nan
44309;BME280;30022;55.846;37.340;2023-09-19T13:37:03;46035.66;;;-143.51;nan
44309;BME280;30022;55.846;37.340;2023-09-19T13:39:29;46033.69;;;-143.51;nan
44309;BME280;30022;55.846;37.340;2023-09-19T13:41:55;46033.69;;;-143.51;nan
44309;BME280;30022;55.846;37.340;2023-09-19T13:44:21;46029.75;;;-143.51;nan
44309;BME280;30022;55.846;37.340;2023-09-19T13:46:48;46035.66;;;-143.51;nan
44309;BME280;30022;55.846;37.340;2023-09-19T13:49:14;46033.69;;;-143.51;nan
44309;BME280;30022;55.846;37.340;2023-09-19T13:51:39;46035.66;;;-143.51;nan
44309;BME280;30022;55.846;37.340;2023-09-19T13:54:08;46037.63;;;-143.51;nan
44309;BME280;30022;55.846;37.340;2023-09-19T13:56:34;46035.66;;;-143.51;nan
44309;BME280;30022;55.846;37.340;2023-09-19T13:58:59;46035.66;;;-143.51;nan
44309;BME280;30022;55.846;37.340;2023-09-19T14:01:25;46033.69;;;-143.51;nan
44309;BME280;30022;55.846;37.340;2023-09-19T14:03:52;46033.69;;;-143.51;nan
44309;BME280;30022;55.846;37.340;2023-09-19T14:06:19;46035.66;;;-143.51;nan